sensor_id;sensor_type;location;lat;lon;timestamp;temperature;humidity
1361;DHT22;674;45.552;-122.600;2022-12-18T00:00:07;6.00;1.00
1361;DHT22;674;45.552;-122.600;2022-12-18T00:02:36;6.00;1.00
1361;DHT22;674;45.552;-122.600;2022-12-18T00:05:05;5.70;1.00
1361;DHT22;674;45.552;-122.600;2022-12-18T00:07:33;5.70;1.00
1361;DHT22;674;45.552;-122.600;2022-12-18T00:10:02;5.80;1.00
1361;DHT22;674;45.552;-122.600;2022-12-18T00:12:31;5.90;1.00
1361;DHT22;674;45.552;-122.600;2022-12-18T00:14:59;5.60;1.00
1361;DHT22;674;45.552;-122.600;2022-12-18T00:17:27;5.40;1.00
1361;DHT22;674;45.552;-122.600;2022-12-18T00:19:56;5.60;1.00
1361;DHT22;674;45.552;-122.600;2022-12-18T00:22:24;5.40;1.00
1361;DHT22;674;45.552;-122.600;2022-12-18T00:24:53;5.20;1.00
1361;DHT22;674;45.552;-122.600;2022-12-18T00:27:21;5.60;1.00
1361;DHT22;674;45.552;-122.600;2022-12-18T00:29:49;5.40;1.00
1361;DHT22;674;45.552;-122.600;2022-12-18T00:32:18;5.20;1.00
1361;DHT22;674;45.552;-122.600;2022-12-18T00:34:46;5.40;1.00
1361;DHT22;674;45.552;-122.600;2022-12-18T00:37:15;5.40;1.00
1361;DHT22;674;45.552;-122.600;2022-12-18T00:39:48;5.30;1.00
1361;DHT22;674;45.552;-122.600;2022-12-18T00:42:17;4.80;1.00
1361;DHT22;674;45.552;-122.600;2022-12-18T00:45:04;4.70;1.00
1361;DHT22;674;45.552;-122.600;2022-12-18T00:47:39;4.40;1.00
1361;DHT22;674;45.552;-122.600;2022-12-18T00:50:08;4.40;1.00
1361;DHT22;674;45.552;-122.600;2022-12-18T00:52:37;4.20;1.00
1361;DHT22;674;45.552;-122.600;2022-12-18T00:55:09;4.10;1.00
1361;DHT22;674;45.552;-122.600;2022-12-18T00:57:37;4.10;1.00
1361;DHT22;674;45.552;-122.600;2022-12-18T01:00:10;4.50;1.00
1361;DHT22;674;45.552;-122.600;2022-12-18T01:02:40;4.10;1.00
1361;DHT22;674;45.552;-122.600;2022-12-18T01:05:10;4.50;1.00
1361;DHT22;674;45.552;-122.600;2022-12-18T01:07:39;4.10;1.00
1361;DHT22;674;45.552;-122.600;2022-12-18T01:10:09;4.30;1.00
1361;DHT22;674;45.552;-122.600;2022-12-18T01:12:39;4.30;1.00
1361;DHT22;674;45.552;-122.600;2022-12-18T01:15:09;4.20;1.00
1361;DHT22;674;45.552;-122.600;2022-12-18T01:17:37;4.50;1.00
1361;DHT22;674;45.552;-122.600;2022-12-18T01:20:06;4.40;1.00
1361;DHT22;674;45.552;-122.600;2022-12-18T01:22:36;4.70;1.00
1361;DHT22;674;45.552;-122.600;2022-12-18T01:25:05;4.40;1.00
1361;DHT22;674;45.552;-122.600;2022-12-18T01:27:34;4.60;1.00
1361;DHT22;674;45.552;-122.600;2022-12-18T01:30:03;4.80;1.00
1361;DHT22;674;45.552;-122.600;2022-12-18T01:32:32;4.60;1.00
1361;DHT22;674;45.552;-122.600;2022-12-18T01:35:00;4.50;1.00
1361;DHT22;674;45.552;-122.600;2022-12-18T01:37:29;4.50;1.00
1361;DHT22;674;45.552;-122.600;2022-12-18T01:39:57;4.70;1.00
1361;DHT22;674;45.552;-122.600;2022-12-18T01:42:26;4.50;1.00
1361;DHT22;674;45.552;-122.600;2022-12-18T01:47:56;4.50;1.00
1361;DHT22;674;45.552;-122.600;2022-12-18T01:50:42;4.40;1.00
1361;DHT22;674;45.552;-122.600;2022-12-18T01:55:45;4.70;1.00
1361;DHT22;674;45.552;-122.600;2022-12-18T01:58:15;4.70;1.00
1361;DHT22;674;45.552;-122.600;2022-12-18T02:00:44;4.40;1.00
1361;DHT22;674;45.552;-122.600;2022-12-18T02:03:13;4.40;1.00
1361;DHT22;674;45.552;-122.600;2022-12-18T02:14:16;4.90;1.00
1361;DHT22;674;45.552;-122.600;2022-12-18T02:16:56;4.70;1.00
1361;DHT22;674;45.552;-122.600;2022-12-18T02:25:51;5.00;1.00
1361;DHT22;674;45.552;-122.600;2022-12-18T02:28:23;4.40;1.00
1361;DHT22;674;45.552;-122.600;2022-12-18T02:30:56;4.60;1.00
1361;DHT22;674;45.552;-122.600;2022-12-18T02:33:29;4.50;1.00
1361;DHT22;674;45.552;-122.600;2022-12-18T02:35:58;4.60;1.00
1361;DHT22;674;45.552;-122.600;2022-12-18T02:38:29;4.70;1.00
1361;DHT22;674;45.552;-122.600;2022-12-18T02:40:59;4.50;1.00
1361;DHT22;674;45.552;-122.600;2022-12-18T02:43:30;5.00;1.00
1361;DHT22;674;45.552;-122.600;2022-12-18T02:46:00;4.40;1.00
1361;DHT22;674;45.552;-122.600;2022-12-18T02:48:34;4.70;1.00
1361;DHT22;674;45.552;-122.600;2022-12-18T02:54:10;5.00;1.00
1361;DHT22;674;45.552;-122.600;2022-12-18T02:56:51;4.70;1.00
1361;DHT22;674;45.552;-122.600;2022-12-18T03:02:37;4.60;1.00
1361;DHT22;674;45.552;-122.600;2022-12-18T03:05:24;4.40;1.00
1361;DHT22;674;45.552;-122.600;2022-12-18T03:08:08;4.10;1.00
1361;DHT22;674;45.552;-122.600;2022-12-18T03:10:48;4.10;1.00
1361;DHT22;674;45.552;-122.600;2022-12-18T03:13:31;4.30;1.00
1361;DHT22;674;45.552;-122.600;2022-12-18T03:16:02;4.30;1.00
1361;DHT22;674;45.552;-122.600;2022-12-18T03:21:14;4.70;1.00
1361;DHT22;674;45.552;-122.600;2022-12-18T03:23:48;4.50;1.00
1361;DHT22;674;45.552;-122.600;2022-12-18T03:26:22;4.40;1.00
1361;DHT22;674;45.552;-122.600;2022-12-18T03:29:09;4.60;1.00
1361;DHT22;674;45.552;-122.600;2022-12-18T03:31:40;4.40;1.00
1361;DHT22;674;45.552;-122.600;2022-12-18T03:34:17;4.40;1.00
1361;DHT22;674;45.552;-122.600;2022-12-18T03:36:47;4.70;1.00
1361;DHT22;674;45.552;-122.600;2022-12-18T03:39:16;4.40;1.00
1361;DHT22;674;45.552;-122.600;2022-12-18T03:41:59;4.40;1.00
1361;DHT22;674;45.552;-122.600;2022-12-18T03:48:28;4.40;1.00
1361;DHT22;674;45.552;-122.600;2022-12-18T03:50:53;4.60;1.00
1361;DHT22;674;45.552;-122.600;2022-12-18T03:53:39;4.50;1.00
1361;DHT22;674;45.552;-122.600;2022-12-18T03:56:10;4.30;1.00
1361;DHT22;674;45.552;-122.600;2022-12-18T03:58:40;4.30;1.00
1361;DHT22;674;45.552;-122.600;2022-12-18T04:01:12;4.60;1.00
1361;DHT22;674;45.552;-122.600;2022-12-18T04:03:43;4.40;1.00
1361;DHT22;674;45.552;-122.600;2022-12-18T04:06:13;4.10;1.00
1361;DHT22;674;45.552;-122.600;2022-12-18T04:08:43;4.10;1.00
1361;DHT22;674;45.552;-122.600;2022-12-18T04:11:12;4.10;1.00
1361;DHT22;674;45.552;-122.600;2022-12-18T04:13:42;3.90;1.00
1361;DHT22;674;45.552;-122.600;2022-12-18T04:16:11;4.00;1.00
1361;DHT22;674;45.552;-122.600;2022-12-18T04:18:39;4.10;1.00
1361;DHT22;674;45.552;-122.600;2022-12-18T04:21:08;3.80;1.00
1361;DHT22;674;45.552;-122.600;2022-12-18T04:23:36;3.80;1.00
1361;DHT22;674;45.552;-122.600;2022-12-18T04:26:05;3.80;1.00
1361;DHT22;674;45.552;-122.600;2022-12-18T04:28:34;4.10;1.00
1361;DHT22;674;45.552;-122.600;2022-12-18T04:31:02;4.20;1.00
1361;DHT22;674;45.552;-122.600;2022-12-18T04:33:31;4.30;1.00
1361;DHT22;674;45.552;-122.600;2022-12-18T04:35:59;4.20;1.00
1361;DHT22;674;45.552;-122.600;2022-12-18T04:38:28;4.30;1.00
1361;DHT22;674;45.552;-122.600;2022-12-18T04:40:56;4.10;1.00
1361;DHT22;674;45.552;-122.600;2022-12-18T04:43:24;4.50;1.00
1361;DHT22;674;45.552;-122.600;2022-12-18T04:45:53;4.30;1.00
1361;DHT22;674;45.552;-122.600;2022-12-18T04:48:21;4.10;1.00
1361;DHT22;674;45.552;-122.600;2022-12-18T04:50:50;4.30;1.00
1361;DHT22;674;45.552;-122.600;2022-12-18T04:53:18;4.60;1.00
1361;DHT22;674;45.552;-122.600;2022-12-18T04:55:47;4.50;1.00
1361;DHT22;674;45.552;-122.600;2022-12-18T04:58:15;4.40;1.00
1361;DHT22;674;45.552;-122.600;2022-12-18T05:00:43;4.60;1.00
1361;DHT22;674;45.552;-122.600;2022-12-18T05:03:12;4.40;1.00
1361;DHT22;674;45.552;-122.600;2022-12-18T05:05:40;4.40;1.00
1361;DHT22;674;45.552;-122.600;2022-12-18T05:08:09;4.30;1.00
1361;DHT22;674;45.552;-122.600;2022-12-18T05:10:37;4.40;1.00
1361;DHT22;674;45.552;-122.600;2022-12-18T05:13:06;4.70;1.00
1361;DHT22;674;45.552;-122.600;2022-12-18T05:15:34;4.70;1.00
1361;DHT22;674;45.552;-122.600;2022-12-18T05:18:03;4.80;1.00
1361;DHT22;674;45.552;-122.600;2022-12-18T05:20:32;4.90;1.00
1361;DHT22;674;45.552;-122.600;2022-12-18T05:23:00;4.60;1.00
1361;DHT22;674;45.552;-122.600;2022-12-18T05:25:28;4.50;1.00
1361;DHT22;674;45.552;-122.600;2022-12-18T05:27:57;4.40;1.00
1361;DHT22;674;45.552;-122.600;2022-12-18T05:30:26;4.60;1.00
1361;DHT22;674;45.552;-122.600;2022-12-18T05:32:55;4.40;1.00
1361;DHT22;674;45.552;-122.600;2022-12-18T05:35:24;4.70;1.00
1361;DHT22;674;45.552;-122.600;2022-12-18T05:37:53;4.60;1.00
1361;DHT22;674;45.552;-122.600;2022-12-18T05:40:21;4.40;1.00
1361;DHT22;674;45.552;-122.600;2022-12-18T05:42:50;4.20;1.00
1361;DHT22;674;45.552;-122.600;2022-12-18T05:45:18;4.30;1.00
1361;DHT22;674;45.552;-122.600;2022-12-18T05:47:48;4.30;1.00
1361;DHT22;674;45.552;-122.600;2022-12-18T05:50:16;4.30;1.00
1361;DHT22;674;45.552;-122.600;2022-12-18T05:52:45;4.60;1.00
1361;DHT22;674;45.552;-122.600;2022-12-18T05:55:13;4.60;1.00
1361;DHT22;674;45.552;-122.600;2022-12-18T05:57:41;4.50;1.00
1361;DHT22;674;45.552;-122.600;2022-12-18T06:00:11;4.50;1.00
1361;DHT22;674;45.552;-122.600;2022-12-18T06:02:39;4.70;1.00
1361;DHT22;674;45.552;-122.600;2022-12-18T06:05:08;4.40;1.00
1361;DHT22;674;45.552;-122.600;2022-12-18T06:07:37;4.50;1.00
1361;DHT22;674;45.552;-122.600;2022-12-18T06:10:05;4.50;1.00
1361;DHT22;674;45.552;-122.600;2022-12-18T06:12:34;4.40;1.00
1361;DHT22;674;45.552;-122.600;2022-12-18T06:15:02;4.50;1.00
1361;DHT22;674;45.552;-122.600;2022-12-18T06:17:32;4.70;1.00
1361;DHT22;674;45.552;-122.600;2022-12-18T06:20:01;5.00;1.00
1361;DHT22;674;45.552;-122.600;2022-12-18T06:22:31;4.70;1.00
1361;DHT22;674;45.552;-122.600;2022-12-18T06:25:00;4.50;1.00
1361;DHT22;674;45.552;-122.600;2022-12-18T06:27:29;4.10;1.00
1361;DHT22;674;45.552;-122.600;2022-12-18T06:29:57;4.30;1.00
1361;DHT22;674;45.552;-122.600;2022-12-18T06:32:26;4.20;1.00
1361;DHT22;674;45.552;-122.600;2022-12-18T06:34:54;3.80;1.00
1361;DHT22;674;45.552;-122.600;2022-12-18T06:37:23;3.80;1.00
1361;DHT22;674;45.552;-122.600;2022-12-18T06:39:55;3.80;1.00
1361;DHT22;674;45.552;-122.600;2022-12-18T06:42:24;3.60;1.00
1361;DHT22;674;45.552;-122.600;2022-12-18T06:44:53;3.60;1.00
1361;DHT22;674;45.552;-122.600;2022-12-18T06:47:21;3.80;1.00
1361;DHT22;674;45.552;-122.600;2022-12-18T06:49:50;4.10;1.00
1361;DHT22;674;45.552;-122.600;2022-12-18T06:52:18;3.90;1.00
1361;DHT22;674;45.552;-122.600;2022-12-18T06:54:47;3.80;1.00
1361;DHT22;674;45.552;-122.600;2022-12-18T06:57:15;3.90;1.00
1361;DHT22;674;45.552;-122.600;2022-12-18T06:59:43;4.10;1.00
1361;DHT22;674;45.552;-122.600;2022-12-18T07:02:12;4.00;2.90
1361;DHT22;674;45.552;-122.600;2022-12-18T07:04:42;3.80;19.00
1361;DHT22;674;45.552;-122.600;2022-12-18T07:07:10;3.80;27.60
1361;DHT22;674;45.552;-122.600;2022-12-18T07:09:39;4.00;38.10
1361;DHT22;674;45.552;-122.600;2022-12-18T07:12:07;3.70;60.70
1361;DHT22;674;45.552;-122.600;2022-12-18T07:14:36;3.80;72.60
1361;DHT22;674;45.552;-122.600;2022-12-18T07:17:04;4.00;68.30
1361;DHT22;674;45.552;-122.600;2022-12-18T07:19:33;3.80;69.90
1361;DHT22;674;45.552;-122.600;2022-12-18T07:22:02;3.80;69.80
1361;DHT22;674;45.552;-122.600;2022-12-18T07:24:31;3.80;68.00
1361;DHT22;674;45.552;-122.600;2022-12-18T07:27:00;3.80;67.50
1361;DHT22;674;45.552;-122.600;2022-12-18T07:29:29;3.90;70.60
1361;DHT22;674;45.552;-122.600;2022-12-18T07:31:57;4.10;62.50
1361;DHT22;674;45.552;-122.600;2022-12-18T07:34:26;4.00;61.60
1361;DHT22;674;45.552;-122.600;2022-12-18T07:36:54;4.00;63.50
1361;DHT22;674;45.552;-122.600;2022-12-18T07:39:23;3.80;63.10
1361;DHT22;674;45.552;-122.600;2022-12-18T07:41:51;4.30;65.40
1361;DHT22;674;45.552;-122.600;2022-12-18T07:44:38;4.10;58.30
1361;DHT22;674;45.552;-122.600;2022-12-18T07:47:07;4.10;57.20
1361;DHT22;674;45.552;-122.600;2022-12-18T07:49:38;4.20;53.20
1361;DHT22;674;45.552;-122.600;2022-12-18T07:52:06;4.30;47.70
1361;DHT22;674;45.552;-122.600;2022-12-18T07:54:36;4.30;36.20
1361;DHT22;674;45.552;-122.600;2022-12-18T07:57:04;4.30;42.00
1361;DHT22;674;45.552;-122.600;2022-12-18T07:59:53;4.60;38.20
1361;DHT22;674;45.552;-122.600;2022-12-18T08:02:21;4.30;42.40
1361;DHT22;674;45.552;-122.600;2022-12-18T08:04:50;4.10;40.50
1361;DHT22;674;45.552;-122.600;2022-12-18T08:07:18;4.10;41.30
1361;DHT22;674;45.552;-122.600;2022-12-18T08:09:47;4.00;50.20
1361;DHT22;674;45.552;-122.600;2022-12-18T08:12:15;4.20;54.80
1361;DHT22;674;45.552;-122.600;2022-12-18T08:14:44;4.40;50.10
1361;DHT22;674;45.552;-122.600;2022-12-18T08:17:12;4.00;50.10
1361;DHT22;674;45.552;-122.600;2022-12-18T08:19:40;4.30;53.40
1361;DHT22;674;45.552;-122.600;2022-12-18T08:22:09;4.30;50.00
1361;DHT22;674;45.552;-122.600;2022-12-18T08:24:37;4.10;44.50
1361;DHT22;674;45.552;-122.600;2022-12-18T08:27:06;4.10;44.10
1361;DHT22;674;45.552;-122.600;2022-12-18T08:29:54;4.10;38.80
1361;DHT22;674;45.552;-122.600;2022-12-18T08:32:23;4.20;39.40
1361;DHT22;674;45.552;-122.600;2022-12-18T08:34:52;4.10;38.90
1361;DHT22;674;45.552;-122.600;2022-12-18T08:37:20;4.10;42.80
1361;DHT22;674;45.552;-122.600;2022-12-18T08:39:49;4.10;42.00
1361;DHT22;674;45.552;-122.600;2022-12-18T08:42:17;4.00;43.40
1361;DHT22;674;45.552;-122.600;2022-12-18T08:45:04;3.90;45.00
1361;DHT22;674;45.552;-122.600;2022-12-18T08:47:33;3.80;60.80
1361;DHT22;674;45.552;-122.600;2022-12-18T08:50:01;3.80;71.60
1361;DHT22;674;45.552;-122.600;2022-12-18T08:52:32;3.90;77.60
1361;DHT22;674;45.552;-122.600;2022-12-18T08:55:00;4.10;72.20
1361;DHT22;674;45.552;-122.600;2022-12-18T08:57:28;3.80;67.60
1361;DHT22;674;45.552;-122.600;2022-12-18T08:59:57;3.80;67.70
1361;DHT22;674;45.552;-122.600;2022-12-18T09:02:25;3.90;65.00
1361;DHT22;674;45.552;-122.600;2022-12-18T09:04:54;3.80;60.90
1361;DHT22;674;45.552;-122.600;2022-12-18T09:07:24;3.80;65.10
1361;DHT22;674;45.552;-122.600;2022-12-18T09:09:52;4.00;63.00
1361;DHT22;674;45.552;-122.600;2022-12-18T09:12:21;4.20;64.90
1361;DHT22;674;45.552;-122.600;2022-12-18T09:14:49;4.00;63.70
1361;DHT22;674;45.552;-122.600;2022-12-18T09:17:18;4.10;64.00
1361;DHT22;674;45.552;-122.600;2022-12-18T09:19:46;3.80;64.20
1361;DHT22;674;45.552;-122.600;2022-12-18T09:22:14;3.90;64.10
1361;DHT22;674;45.552;-122.600;2022-12-18T09:24:43;3.80;66.50
1361;DHT22;674;45.552;-122.600;2022-12-18T09:27:11;3.90;63.80
1361;DHT22;674;45.552;-122.600;2022-12-18T09:29:40;3.90;63.30
1361;DHT22;674;45.552;-122.600;2022-12-18T09:32:08;3.90;68.60
1361;DHT22;674;45.552;-122.600;2022-12-18T09:34:36;3.90;68.80
1361;DHT22;674;45.552;-122.600;2022-12-18T09:37:05;3.80;66.00
1361;DHT22;674;45.552;-122.600;2022-12-18T09:39:33;3.80;63.00
1361;DHT22;674;45.552;-122.600;2022-12-18T09:42:02;3.80;64.20
1361;DHT22;674;45.552;-122.600;2022-12-18T09:44:41;3.80;65.80
1361;DHT22;674;45.552;-122.600;2022-12-18T09:47:23;3.90;70.10
1361;DHT22;674;45.552;-122.600;2022-12-18T09:50:02;3.70;68.60
1361;DHT22;674;45.552;-122.600;2022-12-18T09:52:44;3.90;70.40
1361;DHT22;674;45.552;-122.600;2022-12-18T09:55:30;3.60;72.50
1361;DHT22;674;45.552;-122.600;2022-12-18T10:01:00;4.10;72.50
1361;DHT22;674;45.552;-122.600;2022-12-18T10:03:29;3.60;67.10
1361;DHT22;674;45.552;-122.600;2022-12-18T10:09:24;3.90;76.20
1361;DHT22;674;45.552;-122.600;2022-12-18T10:12:08;3.60;71.80
1361;DHT22;674;45.552;-122.600;2022-12-18T10:20:47;3.90;71.80
1361;DHT22;674;45.552;-122.600;2022-12-18T10:28:37;3.90;61.60
1361;DHT22;674;45.552;-122.600;2022-12-18T10:31:13;3.80;56.10
1361;DHT22;674;45.552;-122.600;2022-12-18T10:33:45;3.80;62.60
1361;DHT22;674;45.552;-122.600;2022-12-18T10:36:14;3.60;69.60
1361;DHT22;674;45.552;-122.600;2022-12-18T10:38:43;3.60;74.70
1361;DHT22;674;45.552;-122.600;2022-12-18T10:44:16;3.30;86.60
1361;DHT22;674;45.552;-122.600;2022-12-18T10:46:48;3.30;97.10
1361;DHT22;674;45.552;-122.600;2022-12-18T10:49:23;3.50;97.10
1361;DHT22;674;45.552;-122.600;2022-12-18T10:52:14;3.50;97.00
1361;DHT22;674;45.552;-122.600;2022-12-18T10:55:15;3.50;96.90
1361;DHT22;674;45.552;-122.600;2022-12-18T10:57:44;3.70;97.30
1361;DHT22;674;45.552;-122.600;2022-12-18T11:02:50;3.80;95.50
1361;DHT22;674;45.552;-122.600;2022-12-18T11:07:56;3.80;94.20
1361;DHT22;674;45.552;-122.600;2022-12-18T11:10:38;3.80;93.00
1361;DHT22;674;45.552;-122.600;2022-12-18T11:13:22;3.70;93.60
1361;DHT22;674;45.552;-122.600;2022-12-18T11:15:52;3.60;95.30
1361;DHT22;674;45.552;-122.600;2022-12-18T11:18:28;3.50;95.90
1361;DHT22;674;45.552;-122.600;2022-12-18T11:21:06;3.50;97.20
1361;DHT22;674;45.552;-122.600;2022-12-18T11:23:36;3.60;96.60
1361;DHT22;674;45.552;-122.600;2022-12-18T11:26:05;3.60;96.60
1361;DHT22;674;45.552;-122.600;2022-12-18T11:34:22;3.40;99.90
1361;DHT22;674;45.552;-122.600;2022-12-18T11:36:58;3.70;99.90
1361;DHT22;674;45.552;-122.600;2022-12-18T11:39:38;3.60;99.90
1361;DHT22;674;45.552;-122.600;2022-12-18T11:45:08;3.60;98.70
1361;DHT22;674;45.552;-122.600;2022-12-18T11:53:13;3.50;99.90
1361;DHT22;674;45.552;-122.600;2022-12-18T12:01:17;4.00;99.60
1361;DHT22;674;45.552;-122.600;2022-12-18T12:04:05;3.60;98.40
1361;DHT22;674;45.552;-122.600;2022-12-18T12:09:49;3.80;98.10
1361;DHT22;674;45.552;-122.600;2022-12-18T12:12:56;3.80;95.70
1361;DHT22;674;45.552;-122.600;2022-12-18T12:16:02;3.90;93.70
1361;DHT22;674;45.552;-122.600;2022-12-18T12:21:55;3.70;90.90
1361;DHT22;674;45.552;-122.600;2022-12-18T12:24:36;3.80;91.20
1361;DHT22;674;45.552;-122.600;2022-12-18T12:30:21;3.80;94.10
1361;DHT22;674;45.552;-122.600;2022-12-18T12:38:47;3.80;95.20
1361;DHT22;674;45.552;-122.600;2022-12-18T12:41:24;3.90;96.20
1361;DHT22;674;45.552;-122.600;2022-12-18T12:44:34;3.90;95.90
1361;DHT22;674;45.552;-122.600;2022-12-18T12:47:24;3.90;94.00
1361;DHT22;674;45.552;-122.600;2022-12-18T12:49:57;3.80;95.20
1361;DHT22;674;45.552;-122.600;2022-12-18T12:52:42;3.80;97.20
1361;DHT22;674;45.552;-122.600;2022-12-18T12:55:21;3.70;98.70
1361;DHT22;674;45.552;-122.600;2022-12-18T13:04:12;3.50;99.40
1361;DHT22;674;45.552;-122.600;2022-12-18T13:09:18;3.80;99.90
1361;DHT22;674;45.552;-122.600;2022-12-18T13:11:47;3.90;99.90
1361;DHT22;674;45.552;-122.600;2022-12-18T13:14:37;3.80;99.90
1361;DHT22;674;45.552;-122.600;2022-12-18T13:20:14;3.80;99.90
1361;DHT22;674;45.552;-122.600;2022-12-18T13:22:48;3.80;97.60
1361;DHT22;674;45.552;-122.600;2022-12-18T13:25:32;4.00;99.30
1361;DHT22;674;45.552;-122.600;2022-12-18T13:28:08;3.80;98.10
1361;DHT22;674;45.552;-122.600;2022-12-18T13:30:59;3.90;98.20
1361;DHT22;674;45.552;-122.600;2022-12-18T13:33:41;4.00;96.60
1361;DHT22;674;45.552;-122.600;2022-12-18T13:36:32;3.90;96.80
1361;DHT22;674;45.552;-122.600;2022-12-18T13:44:35;4.00;95.40
1361;DHT22;674;45.552;-122.600;2022-12-18T13:47:28;3.90;94.40
1361;DHT22;674;45.552;-122.600;2022-12-18T13:50:00;4.00;94.90
1361;DHT22;674;45.552;-122.600;2022-12-18T13:52:36;4.10;92.60
1361;DHT22;674;45.552;-122.600;2022-12-18T13:55:14;4.10;92.90
1361;DHT22;674;45.552;-122.600;2022-12-18T13:57:43;4.20;93.20
1361;DHT22;674;45.552;-122.600;2022-12-18T14:02:51;4.10;95.10
1361;DHT22;674;45.552;-122.600;2022-12-18T14:05:31;4.20;93.30
1361;DHT22;674;45.552;-122.600;2022-12-18T14:08:10;4.20;94.70
1361;DHT22;674;45.552;-122.600;2022-12-18T14:10:45;4.10;95.00
1361;DHT22;674;45.552;-122.600;2022-12-18T14:13:32;4.10;95.80
1361;DHT22;674;45.552;-122.600;2022-12-18T14:16:05;4.10;95.10
1361;DHT22;674;45.552;-122.600;2022-12-18T14:18:45;4.40;95.60
1361;DHT22;674;45.552;-122.600;2022-12-18T14:21:20;4.40;95.00
1361;DHT22;674;45.552;-122.600;2022-12-18T14:23:50;4.40;96.20
1361;DHT22;674;45.552;-122.600;2022-12-18T14:26:31;4.60;96.10
1361;DHT22;674;45.552;-122.600;2022-12-18T14:29:19;4.40;96.50
1361;DHT22;674;45.552;-122.600;2022-12-18T14:32:11;4.50;94.90
1361;DHT22;674;45.552;-122.600;2022-12-18T14:34:46;4.40;93.10
1361;DHT22;674;45.552;-122.600;2022-12-18T14:37:19;4.20;94.50
1361;DHT22;674;45.552;-122.600;2022-12-18T14:40:02;4.10;95.70
1361;DHT22;674;45.552;-122.600;2022-12-18T14:42:37;4.30;95.40
1361;DHT22;674;45.552;-122.600;2022-12-18T14:51:13;4.20;98.00
1361;DHT22;674;45.552;-122.600;2022-12-18T14:53:56;4.10;98.60
1361;DHT22;674;45.552;-122.600;2022-12-18T14:56:35;4.20;99.90
1361;DHT22;674;45.552;-122.600;2022-12-18T14:59:12;4.20;99.90
1361;DHT22;674;45.552;-122.600;2022-12-18T15:05:05;4.20;99.90
1361;DHT22;674;45.552;-122.600;2022-12-18T15:07:47;4.30;99.90
1361;DHT22;674;45.552;-122.600;2022-12-18T15:10:24;4.60;99.90
1361;DHT22;674;45.552;-122.600;2022-12-18T15:20:49;4.10;99.90
1361;DHT22;674;45.552;-122.600;2022-12-18T15:26:02;4.10;99.90
1361;DHT22;674;45.552;-122.600;2022-12-18T15:28:38;4.20;99.90
1361;DHT22;674;45.552;-122.600;2022-12-18T15:36:23;4.10;99.90
1361;DHT22;674;45.552;-122.600;2022-12-18T15:38:54;4.10;99.90
1361;DHT22;674;45.552;-122.600;2022-12-18T15:41:35;4.10;99.90
1361;DHT22;674;45.552;-122.600;2022-12-18T15:44:22;4.40;99.90
1361;DHT22;674;45.552;-122.600;2022-12-18T15:46:50;4.10;99.90
1361;DHT22;674;45.552;-122.600;2022-12-18T15:49:19;4.20;99.90
1361;DHT22;674;45.552;-122.600;2022-12-18T15:51:52;4.10;99.90
1361;DHT22;674;45.552;-122.600;2022-12-18T15:54:21;4.10;99.90
1361;DHT22;674;45.552;-122.600;2022-12-18T15:57:11;4.30;99.90
1361;DHT22;674;45.552;-122.600;2022-12-18T15:59:53;4.00;99.90
1361;DHT22;674;45.552;-122.600;2022-12-18T16:02:24;4.10;99.90
1361;DHT22;674;45.552;-122.600;2022-12-18T16:04:53;4.10;99.90
1361;DHT22;674;45.552;-122.600;2022-12-18T16:07:22;3.90;99.90
1361;DHT22;674;45.552;-122.600;2022-12-18T16:09:53;4.00;99.90
1361;DHT22;674;45.552;-122.600;2022-12-18T16:12:24;4.20;99.90
1361;DHT22;674;45.552;-122.600;2022-12-18T16:14:53;3.80;99.90
1361;DHT22;674;45.552;-122.600;2022-12-18T16:17:21;4.10;99.90
1361;DHT22;674;45.552;-122.600;2022-12-18T16:19:50;4.10;99.90
1361;DHT22;674;45.552;-122.600;2022-12-18T16:24:49;4.40;99.90
1361;DHT22;674;45.552;-122.600;2022-12-18T16:27:18;4.10;99.90
1361;DHT22;674;45.552;-122.600;2022-12-18T16:29:47;4.40;99.90
1361;DHT22;674;45.552;-122.600;2022-12-18T16:32:18;4.10;99.90
1361;DHT22;674;45.552;-122.600;2022-12-18T16:34:47;4.10;99.90
1361;DHT22;674;45.552;-122.600;2022-12-18T16:37:16;4.20;99.90
1361;DHT22;674;45.552;-122.600;2022-12-18T16:39:45;4.10;99.90
1361;DHT22;674;45.552;-122.600;2022-12-18T16:42:15;4.40;99.90
1361;DHT22;674;45.552;-122.600;2022-12-18T16:44:48;4.10;99.90
1361;DHT22;674;45.552;-122.600;2022-12-18T16:47:17;4.10;99.90
1361;DHT22;674;45.552;-122.600;2022-12-18T16:49:46;4.20;99.90
1361;DHT22;674;45.552;-122.600;2022-12-18T16:52:19;4.10;99.90
1361;DHT22;674;45.552;-122.600;2022-12-18T16:54:48;4.20;99.90
1361;DHT22;674;45.552;-122.600;2022-12-18T16:57:18;4.10;99.90
1361;DHT22;674;45.552;-122.600;2022-12-18T16:59:50;4.10;99.90
1361;DHT22;674;45.552;-122.600;2022-12-18T17:02:24;4.20;99.90
1361;DHT22;674;45.552;-122.600;2022-12-18T17:04:56;4.30;99.90
1361;DHT22;674;45.552;-122.600;2022-12-18T17:07:26;4.30;99.90
1361;DHT22;674;45.552;-122.600;2022-12-18T17:09:55;4.10;99.90
1361;DHT22;674;45.552;-122.600;2022-12-18T17:12:23;4.20;99.90
1361;DHT22;674;45.552;-122.600;2022-12-18T17:14:53;4.00;99.90
1361;DHT22;674;45.552;-122.600;2022-12-18T17:17:22;4.10;99.90
1361;DHT22;674;45.552;-122.600;2022-12-18T17:19:51;4.30;99.90
1361;DHT22;674;45.552;-122.600;2022-12-18T17:22:21;4.10;99.90
1361;DHT22;674;45.552;-122.600;2022-12-18T17:24:52;4.10;99.90
1361;DHT22;674;45.552;-122.600;2022-12-18T17:27:20;4.10;99.90
1361;DHT22;674;45.552;-122.600;2022-12-18T17:29:49;4.10;99.90
1361;DHT22;674;45.552;-122.600;2022-12-18T17:32:17;4.10;99.90
1361;DHT22;674;45.552;-122.600;2022-12-18T17:34:46;4.40;99.90
1361;DHT22;674;45.552;-122.600;2022-12-18T17:37:14;4.70;99.90
1361;DHT22;674;45.552;-122.600;2022-12-18T17:39:43;4.60;99.90
1361;DHT22;674;45.552;-122.600;2022-12-18T17:42:12;4.40;99.90
1361;DHT22;674;45.552;-122.600;2022-12-18T17:44:42;4.40;99.90
1361;DHT22;674;45.552;-122.600;2022-12-18T17:47:12;4.40;99.90
1361;DHT22;674;45.552;-122.600;2022-12-18T17:49:40;4.40;99.90
1361;DHT22;674;45.552;-122.600;2022-12-18T17:52:09;4.40;99.90
1361;DHT22;674;45.552;-122.600;2022-12-18T17:54:38;4.50;99.90
1361;DHT22;674;45.552;-122.600;2022-12-18T17:57:08;4.40;99.90
1361;DHT22;674;45.552;-122.600;2022-12-18T17:59:37;4.10;99.90
1361;DHT22;674;45.552;-122.600;2022-12-18T18:02:06;4.30;99.90
1361;DHT22;674;45.552;-122.600;2022-12-18T18:04:34;4.40;99.90
1361;DHT22;674;45.552;-122.600;2022-12-18T18:07:03;4.50;99.90
1361;DHT22;674;45.552;-122.600;2022-12-18T18:09:31;4.60;99.90
1361;DHT22;674;45.552;-122.600;2022-12-18T18:12:00;5.00;99.90
1361;DHT22;674;45.552;-122.600;2022-12-18T18:14:47;5.00;99.90
1361;DHT22;674;45.552;-122.600;2022-12-18T18:17:17;5.10;99.90
1361;DHT22;674;45.552;-122.600;2022-12-18T18:19:45;5.30;99.90
1361;DHT22;674;45.552;-122.600;2022-12-18T18:22:16;5.00;99.90
1361;DHT22;674;45.552;-122.600;2022-12-18T18:24:46;4.80;99.90
1361;DHT22;674;45.552;-122.600;2022-12-18T18:27:15;5.30;99.90
1361;DHT22;674;45.552;-122.600;2022-12-18T18:29:44;5.00;99.90
1361;DHT22;674;45.552;-122.600;2022-12-18T18:32:12;5.20;99.90
1361;DHT22;674;45.552;-122.600;2022-12-18T18:34:40;5.30;99.90
1361;DHT22;674;45.552;-122.600;2022-12-18T18:37:09;5.30;99.90
1361;DHT22;674;45.552;-122.600;2022-12-18T18:39:39;5.40;99.90
1361;DHT22;674;45.552;-122.600;2022-12-18T18:42:07;5.40;99.90
1361;DHT22;674;45.552;-122.600;2022-12-18T18:44:36;5.40;99.90